Newton-le-Willows, United Kingdom
Current Conditions -  °F | °C
As of 9:50 AM on Friday 19 Dec 2014 (Local Time) from EGGP Reporting Station
Rain Showers Rain Showers  
Wind Chill:   Ceiling: Unl
Heat Index:   Visibility: 6mi
Dew Point:   Wind: 20mph
Humidity: 76%   Direction: 270°W
Pressure: 29.85"   Gusts: NA
Location:  53.45°N, 2.6°W
Report Text: EGGP 190950Z 27017KT 9999 -SHRA FEW020 SCT032 08/04 Q1011
Loading
Personal Weather Stations






























Interactive Weather Map New forecast layout! Learn more

10-Day Weather Forecast

Advertisements
Track Severe Weather on mobile